15XS weather

Toy Airpark
Liverpool, Texas, United States

Public forecast

Using degrees Fahrenheit for public forecast. Weather courtesy of forecast.io.

METAR (pilot weather report)

Closest report is Pearland Regional Airport, 12.3 nm (22.8 km) NNE. Retrieved 2019/09/15 03:53 UTC (58 minutes ago):

KLVJ 150353Z AUTO 00000KT 10SM CLR 26/22 A3006 RMK AO2 SLP178 T02560217

TAF (pilot weather forecast)

Forecast is more than 12 hours old.

Closest forecast is Texas Gulf Coast Regional Airport, 15.0 nm (27.8 km) SSW. Retrieved 2019/09/14 00:22 UTC (1 day ago):

TAF KLBX 142320Z 1500/1524 11010KT P6SM SCT250 FM150200 VRB04KT P6SM SCT250 FM151000 VRB02KT 6SM BR FEW030 FM151200 04006KT P6SM FEW030 FM151800 08009KT P6SM VCSH SCT035